ジョージタウン の空港の天気 - METARとTAF

オーウェン ロバーツ国際空港 ( MWCR / GCM ) - ケイマン諸島 ジョージタウン (グランドケイマン)
飛行場実況気象(Metar)
観測時間03/08 22:00 EST (03/09 03:00 UTC)
風向・風速北東 9m/s 瞬間風速15m/s
視程10km以上
天気現象
少しの雲 雲底高度 550m
全天の8割程度の雲 雲底高度 850m
気温26℃
湿度65%
気圧1021hPa
METARMWCR 090300Z 05018G29KT 9999 FEW018 BKN028 26/19 Q1021
過去の天気等 Google飛行場航空写真 Wunderground天気予報

過去48時間のMETAR

飛行場予報(TAF)
発表時間: 3/08 18:00 EST (3/08 23:00 UTC)
予報対象時間: 8日19時 EST ~ 9日19時 EST
風向・風速北東 10m/s 瞬間風速 15m/s
視程10km以上
天気現象周辺でしゅう雨
全天の4割程度の雲 雲底高度 550m
全天の8割程度の雲 雲底高度 910m
TAF MWCR 082300Z 0900/0924 05020G30KT 9999 VCSH SCT018 BKN030